Time;durP1;ratioP1;P1;durP2;ratioP2;P2;SDS_P1;SDS_P2;PMS_P1;PMS_P2;Temp;Humidity;BMP_temperature;BMP_pressure;BME280_temperature;BME280_humidity;BME280_pressure;Samples;Min_cycle;Max_cycle;Signal;HPM_P1;HPM_P2
2023/09/14 00:03:22;;;;;;;;;;;15.90;99.90;;;;;;8370477;28;19943;-71
2023/09/14 00:07:24;;;;;;;;;;;16.00;99.90;;;;;;8378921;28;20322;-71
2023/09/14 00:11:25;;;;;;;;;;;15.90;99.90;;;;;;8375059;28;20500;-71
2023/09/14 00:15:27;;;;;;;;;;;15.80;99.90;;;;;;8378203;28;19928;-71
2023/09/14 00:19:29;;;;;;;;;;;15.70;99.90;;;;;;8373348;28;19967;-71
2023/09/14 00:23:30;;;;;;;;;;;15.70;99.90;;;;;;8365095;28;19936;-71
2023/09/14 00:27:32;;;;;;;;;;;15.60;99.90;;;;;;8368946;28;19928;-71
2023/09/14 00:31:36;;;;;;;;;;;15.60;99.90;;;;;;8374863;28;19935;-71
2023/09/14 00:35:37;;;;;;;;;;;15.60;99.90;;;;;;8378027;28;19930;-71
2023/09/14 00:39:39;;;;;;;;;;;15.60;99.90;;;;;;8373436;28;19925;-71
2023/09/14 00:43:41;;;;;;;;;;;15.60;99.90;;;;;;8365070;28;19952;-71
2023/09/14 00:47:58;;;;;;;;;;;15.50;99.90;;;;;;8372568;28;20379;-71
2023/09/14 00:52:00;;;;;;;;;;;15.50;99.90;;;;;;8362482;28;19925;-71
2023/09/14 00:56:03;;;;;;;;;;;15.50;99.90;;;;;;8369814;28;19940;-71
2023/09/14 01:00:05;;;;;;;;;;;15.50;99.90;;;;;;8355455;28;19951;-71
2023/09/14 01:04:07;;;;;;;;;;;15.50;99.90;;;;;;8381416;28;19925;-71
2023/09/14 01:08:09;;;;;;;;;;;15.50;99.90;;;;;;8369611;28;20405;-71
2023/09/14 01:12:13;;;;;;;;;;;15.40;99.90;;;;;;8370914;28;19968;-71
2023/09/14 01:16:20;;;;;;;;;;;15.40;99.90;;;;;;8366102;28;19925;-71
2023/09/14 01:20:21;;;;;;;;;;;15.30;99.90;;;;;;8378016;28;19930;-71
2023/09/14 01:24:28;;;;;;;;;;;15.20;99.90;;;;;;8367215;28;19928;-71
2023/09/14 01:28:30;;;;;;;;;;;15.20;99.90;;;;;;8372175;28;20337;-71
2023/09/14 01:32:32;;;;;;;;;;;15.10;99.90;;;;;;8347358;28;19959;-71
2023/09/14 01:36:41;;;;;;;;;;;15.10;99.90;;;;;;8368989;28;19980;-71
2023/09/14 01:40:44;;;;;;;;;;;15.00;99.90;;;;;;8369230;28;20364;-71
2023/09/14 01:44:46;;;;;;;;;;;14.90;99.90;;;;;;8376248;28;19924;-71
2023/09/14 01:48:48;;;;;;;;;;;14.90;99.90;;;;;;8367094;28;19971;-71
2023/09/14 01:52:52;;;;;;;;;;;15.00;99.90;;;;;;8370987;28;20020;-70
2023/09/14 01:56:53;;;;;;;;;;;15.00;99.90;;;;;;8363136;28;20323;-70
2023/09/14 02:00:56;;;;;;;;;;;15.00;99.90;;;;;;8371242;28;19925;-71
2023/09/14 02:04:58;;;;;;;;;;;14.90;99.90;;;;;;8350964;28;19932;-71
2023/09/14 02:09:00;;;;;;;;;;;14.90;99.90;;;;;;8367153;28;20360;-71
2023/09/14 02:13:01;;;;;;;;;;;14.80;99.90;;;;;;8370003;28;19925;-70
2023/09/14 02:17:03;;;;;;;;;;;14.70;99.90;;;;;;8357319;28;19932;-70
2023/09/14 02:21:05;;;;;;;;;;;14.60;99.90;;;;;;8359435;28;19924;-71
2023/09/14 02:30:47;;;;;;;;;;;14.50;99.90;;;;;;8364419;28;19940;-71
2023/09/14 02:34:49;;;;;;;;;;;14.50;99.90;;;;;;8378245;28;19932;-70
2023/09/14 02:38:50;;;;;;;;;;;14.40;99.90;;;;;;8374175;28;19928;-70
2023/09/14 02:42:52;;;;;;;;;;;14.30;99.90;;;;;;8378627;28;19932;-71
2023/09/14 02:46:53;;;;;;;;;;;14.30;99.90;;;;;;8382810;28;19990;-71
2023/09/14 02:50:55;;;;;;;;;;;14.20;99.90;;;;;;8376511;28;19932;-71
2023/09/14 02:54:59;;;;;;;;;;;14.20;99.90;;;;;;8376732;28;19979;-71
2023/09/14 02:59:00;;;;;;;;;;;14.10;99.90;;;;;;8377514;28;19932;-71
2023/09/14 03:03:02;;;;;;;;;;;14.10;99.90;;;;;;8368740;28;19951;-71
2023/09/14 03:07:04;;;;;;;;;;;14.10;99.90;;;;;;8368195;28;20375;-71
2023/09/14 03:11:06;;;;;;;;;;;14.00;99.90;;;;;;8378060;28;20031;-71
2023/09/14 03:15:07;;;;;;;;;;;14.00;99.90;;;;;;8379117;28;19978;-71
2023/09/14 03:19:09;;;;;;;;;;;13.90;99.90;;;;;;8371841;28;19925;-71
2023/09/14 03:23:11;;;;;;;;;;;13.90;99.90;;;;;;8378569;28;19964;-71
2023/09/14 03:27:13;;;;;;;;;;;13.80;99.90;;;;;;8379702;28;19924;-71
2023/09/14 03:31:14;;;;;;;;;;;13.80;99.90;;;;;;8367356;28;19978;-71
2023/09/14 03:35:16;;;;;;;;;;;13.80;99.90;;;;;;8380487;28;19932;-70
2023/09/14 03:39:18;;;;;;;;;;;13.70;99.90;;;;;;8376580;28;19974;-70
2023/09/14 03:43:20;;;;;;;;;;;13.70;99.90;;;;;;8377407;28;19932;-71
2023/09/14 03:47:22;;;;;;;;;;;13.60;99.90;;;;;;8390279;28;19932;-71
2023/09/14 03:51:23;;;;;;;;;;;13.60;99.90;;;;;;8368427;28;19960;-71
2023/09/14 03:55:25;;;;;;;;;;;13.60;99.90;;;;;;8375930;28;19925;-71
2023/09/14 03:59:27;;;;;;;;;;;13.50;99.90;;;;;;8374797;28;19925;-71
2023/09/14 04:03:29;;;;;;;;;;;13.50;99.90;;;;;;8379608;28;19924;-71
2023/09/14 04:07:31;;;;;;;;;;;13.40;99.90;;;;;;8371829;28;19924;-71
2023/09/14 04:11:58;;;;;;;;;;;13.40;99.90;;;;;;8380901;28;20284;-71
2023/09/14 04:16:00;;;;;;;;;;;13.40;99.90;;;;;;8374687;28;20319;-71
2023/09/14 04:20:09;;;;;;;;;;;13.30;99.90;;;;;;8370481;28;20009;-70
2023/09/14 04:24:11;;;;;;;;;;;13.30;99.90;;;;;;8370081;28;20203;-70
2023/09/14 04:28:17;;;;;;;;;;;13.30;99.90;;;;;;8378956;28;19931;-70
2023/09/14 04:32:19;;;;;;;;;;;13.20;99.90;;;;;;8380622;28;19932;-70
2023/09/14 04:36:20;;;;;;;;;;;13.20;99.90;;;;;;8373989;28;20384;-70
2023/09/14 04:40:23;;;;;;;;;;;13.10;99.90;;;;;;8370199;28;19939;-70
2023/09/14 04:44:24;;;;;;;;;;;13.10;99.90;;;;;;8374770;28;19940;-70
2023/09/14 04:48:26;;;;;;;;;;;13.10;99.90;;;;;;8372867;28;20375;-71
2023/09/14 04:52:28;;;;;;;;;;;13.10;99.90;;;;;;8378338;28;19924;-71
2023/09/14 04:56:30;;;;;;;;;;;13.00;99.90;;;;;;8384927;28;20012;-71
2023/09/14 05:00:33;;;;;;;;;;;13.00;99.90;;;;;;8377872;28;19935;-71
2023/09/14 05:04:35;;;;;;;;;;;12.90;99.90;;;;;;8379639;28;20376;-70
2023/09/14 05:08:36;;;;;;;;;;;12.90;99.90;;;;;;8373471;28;19964;-70
2023/09/14 05:12:38;;;;;;;;;;;12.90;99.90;;;;;;8369972;28;19925;-70
2023/09/14 05:16:40;;;;;;;;;;;12.90;99.90;;;;;;8376293;28;19929;-70
2023/09/14 05:30:49;;;;;;;;;;;12.80;99.90;;;;;;8370036;28;20394;-71
2023/09/14 05:34:51;;;;;;;;;;;12.80;99.90;;;;;;8367286;28;20379;-70
2023/09/14 05:38:52;;;;;;;;;;;12.80;99.90;;;;;;8382544;28;19924;-70
2023/09/14 05:42:54;;;;;;;;;;;12.80;99.90;;;;;;8380355;28;19948;-71
2023/09/14 05:46:56;;;;;;;;;;;12.70;99.90;;;;;;8374939;28;20967;-70
2023/09/14 05:50:57;;;;;;;;;;;12.80;99.90;;;;;;8350199;28;20006;-70
2023/09/14 05:54:59;;;;;;;;;;;12.80;99.90;;;;;;8368968;28;19979;-70
2023/09/14 05:59:02;;;;;;;;;;;12.80;99.90;;;;;;8364676;28;19928;-70
2023/09/14 06:03:05;;;;;;;;;;;12.90;99.90;;;;;;8341802;28;20008;-71
2023/09/14 06:07:07;;;;;;;;;;;13.00;99.90;;;;;;8379269;28;19931;-71
2023/09/14 06:11:09;;;;;;;;;;;13.10;99.90;;;;;;8376680;28;19925;-71
2023/09/14 06:15:10;;;;;;;;;;;13.10;99.90;;;;;;8377544;28;19925;-71
2023/09/14 06:19:12;;;;;;;;;;;13.30;99.90;;;;;;8355085;28;19929;-71
2023/09/14 06:23:14;;;;;;;;;;;13.40;99.90;;;;;;8383235;28;20372;-71
2023/09/14 06:27:15;;;;;;;;;;;13.40;99.90;;;;;;8366785;28;20370;-70
2023/09/14 06:31:17;;;;;;;;;;;13.50;99.90;;;;;;8372466;28;19932;-70
2023/09/14 06:35:19;;;;;;;;;;;13.60;99.90;;;;;;8370138;28;19967;-71
2023/09/14 06:39:21;;;;;;;;;;;13.80;99.90;;;;;;8376900;28;19932;-70
2023/09/14 06:43:23;;;;;;;;;;;13.90;99.90;;;;;;8377495;28;19932;-70
2023/09/14 06:52:28;;;;;;;;;;;14.20;99.90;;;;;;8379619;28;19920;-70
2023/09/14 06:56:31;;;;;;;;;;;14.40;99.90;;;;;;8374508;28;19925;-70
2023/09/14 07:00:32;;;;;;;;;;;14.50;99.90;;;;;;8373164;28;19976;-70
2023/09/14 07:04:34;;;;;;;;;;;14.70;99.90;;;;;;8372063;28;19932;-70
2023/09/14 07:08:40;;;;;;;;;;;14.80;99.90;;;;;;8373384;28;19925;-70
2023/09/14 07:12:42;;;;;;;;;;;14.90;99.90;;;;;;8367507;28;19928;-70
2023/09/14 07:16:44;;;;;;;;;;;15.00;99.90;;;;;;8371052;28;19934;-71
2023/09/14 07:20:46;;;;;;;;;;;15.10;99.90;;;;;;8377072;28;19929;-71
2023/09/14 07:24:47;;;;;;;;;;;15.20;99.90;;;;;;8364690;28;19982;-71
2023/09/14 07:28:49;;;;;;;;;;;15.30;99.90;;;;;;8354082;28;19943;-71
2023/09/14 07:32:50;;;;;;;;;;;15.40;99.90;;;;;;8372474;28;19981;-70
2023/09/14 07:36:52;;;;;;;;;;;15.50;99.90;;;;;;8386451;28;19947;-70
2023/09/14 07:40:54;;;;;;;;;;;15.50;99.90;;;;;;8375756;28;19947;-70
2023/09/14 07:44:56;;;;;;;;;;;15.60;99.90;;;;;;8379068;28;20364;-70
2023/09/14 07:48:59;;;;;;;;;;;15.60;99.90;;;;;;8380189;28;19939;-70
2023/09/14 07:53:03;;;;;;;;;;;15.70;99.90;;;;;;8364558;28;20360;-70
2023/09/14 07:57:05;;;;;;;;;;;15.70;99.90;;;;;;8366391;28;20247;-70
2023/09/14 08:01:06;;;;;;;;;;;15.80;99.90;;;;;;8383063;28;19947;-70
2023/09/14 08:05:08;;;;;;;;;;;15.90;99.90;;;;;;8369595;28;19925;-70
2023/09/14 08:09:10;;;;;;;;;;;16.00;99.90;;;;;;8372228;28;19931;-70
2023/09/14 08:13:12;;;;;;;;;;;16.10;99.90;;;;;;8358185;28;19925;-70
2023/09/14 08:17:13;;;;;;;;;;;16.20;99.90;;;;;;8378923;28;19978;-70
2023/09/14 08:31:21;;;;;;;;;;;16.50;99.90;;;;;;8378572;28;19923;-70
2023/09/14 08:35:24;;;;;;;;;;;16.70;99.90;;;;;;8367718;28;19928;-70
2023/09/14 08:39:27;;;;;;;;;;;16.80;99.90;;;;;;8376535;28;20307;-70
2023/09/14 08:43:28;;;;;;;;;;;16.80;99.90;;;;;;8375177;28;19929;-70
2023/09/14 08:47:30;;;;;;;;;;;16.90;99.90;;;;;;8365671;28;19931;-70
2023/09/14 08:51:33;;;;;;;;;;;17.00;99.90;;;;;;8369103;28;19971;-70
2023/09/14 08:55:35;;;;;;;;;;;17.10;99.90;;;;;;8373411;28;20361;-70
2023/09/14 09:04:40;;;;;;;;;;;17.30;99.90;;;;;;8363356;28;19920;-70
2023/09/14 09:08:42;;;;;;;;;;;17.40;99.90;;;;;;8374794;28;20357;-70
2023/09/14 09:12:46;;;;;;;;;;;17.50;99.90;;;;;;8373659;28;19982;-70
2023/09/14 09:16:47;;;;;;;;;;;17.50;99.90;;;;;;8342449;28;19970;-70
2023/09/14 09:20:49;;;;;;;;;;;17.60;99.90;;;;;;8370336;28;19925;-70
2023/09/14 09:24:54;;;;;;;;;;;17.70;99.90;;;;;;8372811;28;20006;-70
2023/09/14 09:28:56;;;;;;;;;;;17.80;99.90;;;;;;8371335;28;19928;-70
2023/09/14 09:32:58;;;;;;;;;;;18.00;99.90;;;;;;8368829;28;19925;-71
2023/09/14 09:37:00;;;;;;;;;;;18.00;99.90;;;;;;8364686;28;20394;-71
2023/09/14 09:41:07;;;;;;;;;;;18.00;99.90;;;;;;8366186;28;19978;-70
2023/09/14 09:45:09;;;;;;;;;;;18.10;99.90;;;;;;8358326;28;20047;-70
2023/09/14 09:49:18;;;;;;;;;;;18.10;99.90;;;;;;8356177;28;19925;-70
2023/09/14 09:53:20;;;;;;;;;;;18.20;99.90;;;;;;8384438;28;19963;-70
2023/09/14 09:57:26;;;;;;;;;;;18.30;99.90;;;;;;8378723;28;20303;-70
2023/09/14 10:01:28;;;;;;;;;;;18.50;99.90;;;;;;8379655;28;19978;-70
2023/09/14 10:05:31;;;;;;;;;;;18.50;99.90;;;;;;8376473;28;19947;-70
2023/09/14 10:09:34;;;;;;;;;;;18.50;99.90;;;;;;8375695;28;20276;-70
2023/09/14 10:13:36;;;;;;;;;;;18.60;99.90;;;;;;8383272;28;19932;-70
2023/09/14 10:17:37;;;;;;;;;;;18.70;99.90;;;;;;8373808;28;19925;-71
2023/09/14 10:21:39;;;;;;;;;;;18.90;99.90;;;;;;8374906;28;19933;-70
2023/09/14 10:25:43;;;;;;;;;;;18.90;99.90;;;;;;8366438;28;20475;-70
2023/09/14 10:29:44;;;;;;;;;;;18.80;99.90;;;;;;8374331;28;19941;-70
2023/09/14 10:33:47;;;;;;;;;;;18.70;99.90;;;;;;8379031;28;19935;-70
2023/09/14 10:37:49;;;;;;;;;;;18.70;99.90;;;;;;8373039;28;19925;-70
2023/09/14 10:41:51;;;;;;;;;;;18.70;99.90;;;;;;8373908;28;19932;-70
2023/09/14 10:45:58;;;;;;;;;;;18.70;99.90;;;;;;8370587;28;19924;-70
2023/09/14 10:50:01;;;;;;;;;;;18.70;99.90;;;;;;8367147;28;19925;-70
2023/09/14 10:54:02;;;;;;;;;;;18.80;99.90;;;;;;8371820;28;20398;-70
2023/09/14 10:58:04;;;;;;;;;;;18.80;99.90;;;;;;8373967;28;19974;-70
2023/09/14 11:02:06;;;;;;;;;;;19.00;99.90;;;;;;8378777;28;19932;-71
2023/09/14 11:06:42;;;;;;;;;;;19.10;99.90;;;;;;8372898;28;20295;-71
2023/09/14 11:10:54;;;;;;;;;;;19.30;99.90;;;;;;8355787;28;19932;-71
2023/09/14 11:15:10;;;;;;;;;;;19.20;99.90;;;;;;8384666;28;20330;-71
2023/09/14 11:19:42;;;;;;;;;;;19.10;99.90;;;;;;8378302;28;19931;-71
2023/09/14 11:23:48;;;;;;;;;;;18.90;99.90;;;;;;8380624;28;20437;-70
2023/09/14 11:27:50;;;;;;;;;;;18.80;99.90;;;;;;8390230;28;19935;-70
2023/09/14 11:31:56;;;;;;;;;;;18.80;99.90;;;;;;8376406;28;19979;-70
2023/09/14 11:36:03;;;;;;;;;;;18.80;99.90;;;;;;8376618;28;19928;-70
2023/09/14 11:40:10;;;;;;;;;;;18.90;99.90;;;;;;8379769;28;20331;-70
2023/09/14 11:44:16;;;;;;;;;;;19.10;99.90;;;;;;8373403;28;20371;-71
2023/09/14 11:48:22;;;;;;;;;;;19.10;99.90;;;;;;8374721;28;19931;-71
2023/09/14 11:52:30;;;;;;;;;;;19.20;99.90;;;;;;8371058;28;19928;-71
2023/09/14 11:56:33;;;;;;;;;;;19.40;99.90;;;;;;8374387;28;19932;-70
2023/09/14 12:00:43;;;;;;;;;;;19.70;99.90;;;;;;8371008;28;19975;-70
2023/09/14 12:04:46;;;;;;;;;;;19.80;99.90;;;;;;8374951;28;19937;-70
2023/09/14 12:08:49;;;;;;;;;;;20.00;99.90;;;;;;8361064;28;20356;-70
2023/09/14 12:12:50;;;;;;;;;;;20.10;99.90;;;;;;8379642;28;19925;-71
2023/09/14 12:16:52;;;;;;;;;;;20.00;99.90;;;;;;8360304;28;19928;-71
2023/09/14 12:20:54;;;;;;;;;;;19.90;99.90;;;;;;8376159;28;20280;-71
2023/09/14 12:24:56;;;;;;;;;;;19.80;99.90;;;;;;8367722;28;19925;-71
2023/09/14 12:28:58;;;;;;;;;;;19.70;99.90;;;;;;8379781;28;19928;-70
2023/09/14 12:33:02;;;;;;;;;;;19.60;99.90;;;;;;8356666;28;19931;-71
2023/09/14 12:37:04;;;;;;;;;;;19.60;99.90;;;;;;8368412;28;19925;-71
2023/09/14 12:41:06;;;;;;;;;;;19.70;99.90;;;;;;8365765;28;20335;-71
2023/09/14 12:45:17;;;;;;;;;;;19.80;99.90;;;;;;8378842;28;19967;-71
2023/09/14 12:49:19;;;;;;;;;;;19.90;99.90;;;;;;8362073;28;19929;-70
2023/09/14 12:53:23;;;;;;;;;;;20.10;99.90;;;;;;8360224;28;19981;-70
2023/09/14 12:57:25;;;;;;;;;;;20.20;99.90;;;;;;8374049;28;19924;-70
2023/09/14 13:01:27;;;;;;;;;;;20.40;99.90;;;;;;8372512;28;20383;-70
2023/09/14 13:05:28;;;;;;;;;;;20.40;99.90;;;;;;8368860;28;19928;-71
2023/09/14 13:09:32;;;;;;;;;;;20.50;99.90;;;;;;8369579;28;20014;-71
2023/09/14 13:13:34;;;;;;;;;;;20.60;99.90;;;;;;8368093;28;20015;-71
2023/09/14 13:22:39;;;;;;;;;;;20.70;99.90;;;;;;8376831;28;19999;-71
2023/09/14 13:26:40;;;;;;;;;;;20.80;99.90;;;;;;8381004;28;20376;-71
2023/09/14 13:30:42;;;;;;;;;;;20.80;99.90;;;;;;8385272;28;20547;-70
2023/09/14 13:34:43;;;;;;;;;;;20.70;99.90;;;;;;8375766;28;20021;-70
2023/09/14 13:38:45;;;;;;;;;;;20.60;99.90;;;;;;8377732;28;19943;-71
2023/09/14 13:42:48;;;;;;;;;;;20.40;99.90;;;;;;8378545;28;19968;-70
2023/09/14 13:46:50;;;;;;;;;;;20.30;99.90;;;;;;8376938;28;19925;-70
2023/09/14 13:50:51;;;;;;;;;;;20.20;99.90;;;;;;8379138;28;19954;-70
2023/09/14 13:54:53;;;;;;;;;;;20.30;99.90;;;;;;8378949;28;20002;-70
2023/09/14 13:58:56;;;;;;;;;;;20.40;99.90;;;;;;8379248;28;20380;-70
2023/09/14 14:03:08;;;;;;;;;;;20.50;99.90;;;;;;8373332;28;19925;-70
2023/09/14 14:07:11;;;;;;;;;;;20.80;99.90;;;;;;8355646;28;19931;-71
2023/09/14 14:11:12;;;;;;;;;;;21.00;99.90;;;;;;8372881;28;20418;-71
2023/09/14 14:15:14;;;;;;;;;;;21.20;99.90;;;;;;8370105;28;19929;-71
2023/09/14 14:19:16;;;;;;;;;;;21.30;99.90;;;;;;8360637;28;19928;-71
2023/09/14 14:23:19;;;;;;;;;;;21.50;99.90;;;;;;8365224;28;21368;-71
2023/09/14 14:27:21;;;;;;;;;;;21.50;99.90;;;;;;8368338;28;19925;-71
2023/09/14 14:31:23;;;;;;;;;;;21.60;99.90;;;;;;8373798;28;20286;-71
2023/09/14 14:35:25;;;;;;;;;;;21.60;99.90;;;;;;8372195;28;20312;-71
2023/09/14 14:39:26;;;;;;;;;;;21.70;99.90;;;;;;8372241;28;19932;-71
2023/09/14 14:43:28;;;;;;;;;;;21.70;99.90;;;;;;8349608;28;19925;-70
2023/09/14 14:47:30;;;;;;;;;;;21.70;99.90;;;;;;8352249;28;19929;-71
2023/09/14 14:51:31;;;;;;;;;;;21.70;99.90;;;;;;8374558;28;20276;-71
2023/09/14 14:55:34;;;;;;;;;;;21.70;99.90;;;;;;8357823;28;19974;-71
2023/09/14 14:59:36;;;;;;;;;;;21.80;99.90;;;;;;8379853;28;19967;-71
2023/09/14 15:03:38;;;;;;;;;;;21.80;99.90;;;;;;8381050;28;20047;-71
2023/09/14 15:07:39;;;;;;;;;;;21.80;99.90;;;;;;8367535;28;19925;-71
2023/09/14 15:11:41;;;;;;;;;;;21.70;99.90;;;;;;8372510;28;19978;-71
2023/09/14 15:15:43;;;;;;;;;;;21.70;99.90;;;;;;8377608;28;19939;-71
2023/09/14 15:19:45;;;;;;;;;;;21.70;99.90;;;;;;8366885;28;20399;-71
2023/09/14 15:23:46;;;;;;;;;;;21.60;99.90;;;;;;8370532;28;19936;-71
2023/09/14 15:27:48;;;;;;;;;;;21.60;99.90;;;;;;8376900;28;19924;-71
2023/09/14 15:31:50;;;;;;;;;;;21.60;99.90;;;;;;8373557;28;20254;-71
2023/09/14 15:35:51;;;;;;;;;;;21.50;99.90;;;;;;8371324;28;19931;-71
2023/09/14 15:39:53;;;;;;;;;;;21.50;99.90;;;;;;8381570;28;19932;-71
2023/09/14 15:43:55;;;;;;;;;;;21.50;99.90;;;;;;8384287;28;19928;-71
2023/09/14 16:03:07;;;;;;;;;;;21.50;99.90;;;;;;8374040;28;19920;-71
2023/09/14 16:07:08;;;;;;;;;;;21.50;99.90;;;;;;8380462;28;20027;-71
2023/09/14 16:11:10;;;;;;;;;;;21.50;99.90;;;;;;8375595;28;19925;-71
2023/09/14 16:15:12;;;;;;;;;;;21.50;99.90;;;;;;8350035;28;19932;-71
2023/09/14 16:19:14;;;;;;;;;;;21.50;99.90;;;;;;8361975;28;21257;-71
2023/09/14 16:23:16;;;;;;;;;;;21.50;99.90;;;;;;8356671;28;20006;-71
2023/09/14 16:27:17;;;;;;;;;;;21.60;99.90;;;;;;8358887;28;19928;-71
2023/09/14 16:31:21;;;;;;;;;;;21.60;99.90;;;;;;8355970;28;19928;-71
2023/09/14 16:35:23;;;;;;;;;;;21.50;99.90;;;;;;8367469;28;19928;-71
2023/09/14 16:39:26;;;;;;;;;;;21.60;99.90;;;;;;8354710;28;19924;-71
2023/09/14 16:43:28;;;;;;;;;;;21.50;99.90;;;;;;8371495;28;19959;-71
2023/09/14 16:47:29;;;;;;;;;;;21.50;99.90;;;;;;8372239;28;20360;-71
2023/09/14 16:51:31;;;;;;;;;;;21.50;99.90;;;;;;8349084;28;20044;-71
2023/09/14 16:55:33;;;;;;;;;;;21.50;99.90;;;;;;8377063;28;20033;-71
2023/09/14 16:59:36;;;;;;;;;;;21.60;99.90;;;;;;8381002;28;20014;-71
2023/09/14 17:03:38;;;;;;;;;;;21.70;99.90;;;;;;8367739;28;19947;-71
2023/09/14 17:07:40;;;;;;;;;;;21.90;99.90;;;;;;8361225;28;19929;-71
2023/09/14 17:11:42;;;;;;;;;;;22.00;99.90;;;;;;8379065;28;19969;-71
2023/09/14 17:15:43;;;;;;;;;;;21.90;99.90;;;;;;8377812;28;19925;-71
2023/09/14 17:19:45;;;;;;;;;;;21.80;99.90;;;;;;8368493;28;19928;-71
2023/09/14 17:23:47;;;;;;;;;;;21.70;99.90;;;;;;8365517;28;19979;-71
2023/09/14 17:27:50;;;;;;;;;;;21.50;99.90;;;;;;8374137;28;19928;-71
2023/09/14 17:31:52;;;;;;;;;;;21.40;99.90;;;;;;8371546;28;19933;-71
2023/09/14 17:35:54;;;;;;;;;;;21.20;99.90;;;;;;8367320;28;20384;-71
2023/09/14 17:39:55;;;;;;;;;;;21.00;99.90;;;;;;8357221;28;19932;-71
2023/09/14 17:43:57;;;;;;;;;;;20.80;99.90;;;;;;8370605;28;20031;-71
2023/09/14 17:47:59;;;;;;;;;;;20.60;99.90;;;;;;8357340;28;19932;-71
2023/09/14 17:52:02;;;;;;;;;;;20.40;99.90;;;;;;8365058;28;19924;-71
2023/09/14 17:56:05;;;;;;;;;;;20.20;99.90;;;;;;8352455;28;20015;-71
2023/09/14 18:00:12;;;;;;;;;;;20.00;99.90;;;;;;8368876;28;19924;-71
2023/09/14 18:04:14;;;;;;;;;;;19.80;99.90;;;;;;8374142;28;19943;-71
2023/09/14 18:08:17;;;;;;;;;;;19.70;99.90;;;;;;8365393;28;19970;-71
2023/09/14 18:12:18;;;;;;;;;;;19.50;99.90;;;;;;8373031;28;19959;-71
2023/09/14 18:16:20;;;;;;;;;;;19.40;99.90;;;;;;8376122;28;20296;-71
2023/09/14 18:20:22;;;;;;;;;;;19.30;99.90;;;;;;8371475;28;20955;-71
2023/09/14 18:24:24;;;;;;;;;;;19.20;99.90;;;;;;8375642;28;19979;-71
2023/09/14 18:28:27;;;;;;;;;;;19.10;99.90;;;;;;8368760;28;19924;-70
2023/09/14 18:32:29;;;;;;;;;;;19.00;99.90;;;;;;8378534;28;19925;-71
2023/09/14 18:36:31;;;;;;;;;;;18.90;99.90;;;;;;8367004;28;19932;-70
2023/09/14 18:40:33;;;;;;;;;;;18.80;99.90;;;;;;8378773;28;19925;-71
2023/09/14 18:44:34;;;;;;;;;;;18.70;99.90;;;;;;8373225;28;19936;-71
2023/09/14 18:48:36;;;;;;;;;;;18.60;99.90;;;;;;8371983;28;19924;-71
2023/09/14 18:52:41;;;;;;;;;;;18.50;99.90;;;;;;8377298;28;19967;-71
2023/09/14 18:56:42;;;;;;;;;;;18.40;99.90;;;;;;8370490;28;20583;-71
2023/09/14 19:00:44;;;;;;;;;;;18.40;99.90;;;;;;8372245;28;19955;-70
2023/09/14 19:04:46;;;;;;;;;;;18.30;99.90;;;;;;8370884;28;21073;-71
2023/09/14 19:08:47;;;;;;;;;;;18.30;99.90;;;;;;8377084;28;20228;-70
2023/09/14 19:12:52;;;;;;;;;;;18.30;99.90;;;;;;8381668;28;19942;-70
2023/09/14 19:16:54;;;;;;;;;;;18.20;99.90;;;;;;8368533;28;19925;-71
2023/09/14 19:20:56;;;;;;;;;;;18.20;99.90;;;;;;8376622;28;20335;-71
2023/09/14 19:24:57;;;;;;;;;;;18.20;99.90;;;;;;8386443;28;19925;-71
2023/09/14 19:28:59;;;;;;;;;;;18.20;99.90;;;;;;8378932;28;19936;-71
2023/09/14 19:33:01;;;;;;;;;;;18.20;99.90;;;;;;8375094;28;19925;-70
2023/09/14 19:37:03;;;;;;;;;;;18.10;99.90;;;;;;8376132;28;19969;-71
2023/09/14 19:41:05;;;;;;;;;;;18.10;99.90;;;;;;8376309;28;19925;-71
2023/09/14 19:45:07;;;;;;;;;;;18.00;99.90;;;;;;8369785;28;19924;-70
2023/09/14 19:49:10;;;;;;;;;;;17.90;99.90;;;;;;8369270;28;19943;-71
2023/09/14 19:53:11;;;;;;;;;;;17.90;99.90;;;;;;8374560;28;19947;-70
2023/09/14 19:57:14;;;;;;;;;;;17.80;99.90;;;;;;8370619;28;19929;-71
2023/09/14 20:01:18;;;;;;;;;;;17.80;99.90;;;;;;8378487;28;19940;-71
2023/09/14 20:05:20;;;;;;;;;;;17.70;99.90;;;;;;8373970;28;19933;-71
2023/09/14 20:09:25;;;;;;;;;;;17.60;99.90;;;;;;8378747;28;19978;-70
2023/09/14 20:13:27;;;;;;;;;;;17.60;99.90;;;;;;8368246;28;20018;-70
2023/09/14 20:17:29;;;;;;;;;;;17.50;99.90;;;;;;8371478;28;20379;-71
2023/09/14 20:21:30;;;;;;;;;;;17.50;99.90;;;;;;8352527;28;19978;-71
2023/09/14 20:25:32;;;;;;;;;;;17.50;99.90;;;;;;8365247;28;19979;-71
2023/09/14 20:29:34;;;;;;;;;;;17.50;99.90;;;;;;8370170;28;19924;-70
2023/09/14 20:33:36;;;;;;;;;;;17.40;99.90;;;;;;8374119;28;19925;-70
2023/09/14 20:37:38;;;;;;;;;;;17.50;99.90;;;;;;8370971;28;19951;-71
2023/09/14 20:41:40;;;;;;;;;;;17.40;99.90;;;;;;8376663;28;19929;-70
2023/09/14 20:45:41;;;;;;;;;;;17.40;99.90;;;;;;8375162;28;19928;-70
2023/09/14 20:49:49;;;;;;;;;;;17.40;99.90;;;;;;8364638;28;19987;-70
2023/09/14 20:53:50;;;;;;;;;;;17.40;99.90;;;;;;8368623;28;19933;-71
2023/09/14 20:57:56;;;;;;;;;;;17.30;99.90;;;;;;8366451;28;20391;-70
2023/09/14 21:01:58;;;;;;;;;;;17.20;99.90;;;;;;8364913;28;19952;-70
2023/09/14 21:06:00;;;;;;;;;;;17.20;99.90;;;;;;8378338;28;20356;-70
2023/09/14 21:10:03;;;;;;;;;;;17.10;99.90;;;;;;8373557;28;19936;-70
2023/09/14 21:14:08;;;;;;;;;;;17.10;99.90;;;;;;8381641;28;19931;-70
2023/09/14 21:18:10;;;;;;;;;;;17.10;99.90;;;;;;8375590;28;20381;-70
2023/09/14 21:22:11;;;;;;;;;;;17.00;99.90;;;;;;8372760;28;19925;-70
2023/09/14 21:26:13;;;;;;;;;;;17.00;99.90;;;;;;8369878;28;19928;-70
2023/09/14 21:30:15;;;;;;;;;;;16.90;99.90;;;;;;8377815;28;19924;-70
2023/09/14 21:34:16;;;;;;;;;;;16.90;99.90;;;;;;8368451;28;19924;-70
2023/09/14 21:38:18;;;;;;;;;;;16.90;99.90;;;;;;8368599;28;19924;-71
2023/09/14 21:42:20;;;;;;;;;;;16.90;99.90;;;;;;8376810;28;19929;-70
2023/09/14 21:46:21;;;;;;;;;;;16.90;99.90;;;;;;8372176;28;19932;-70
2023/09/14 21:50:23;;;;;;;;;;;16.90;99.90;;;;;;8367612;28;20379;-70
2023/09/14 21:54:25;;;;;;;;;;;16.90;99.90;;;;;;8368265;28;19959;-70
2023/09/14 21:58:27;;;;;;;;;;;16.90;99.90;;;;;;8370846;28;20335;-70
2023/09/14 22:02:30;;;;;;;;;;;16.90;99.90;;;;;;8367756;28;20371;-70
2023/09/14 22:06:32;;;;;;;;;;;16.90;99.90;;;;;;8373621;28;19928;-70
2023/09/14 22:10:34;;;;;;;;;;;16.90;99.90;;;;;;8370983;28;19931;-71
2023/09/14 22:14:36;;;;;;;;;;;16.80;99.90;;;;;;8370341;28;20233;-70
2023/09/14 22:18:40;;;;;;;;;;;16.80;99.90;;;;;;8372248;28;19929;-70
2023/09/14 22:22:42;;;;;;;;;;;16.80;99.90;;;;;;8362669;28;19924;-70
2023/09/14 22:26:44;;;;;;;;;;;16.70;99.90;;;;;;8376579;28;19929;-70
2023/09/14 22:30:46;;;;;;;;;;;16.70;99.90;;;;;;8369684;28;19948;-70
2023/09/14 22:34:48;;;;;;;;;;;16.60;99.90;;;;;;8365321;28;19975;-70
2023/09/14 22:38:49;;;;;;;;;;;16.60;99.90;;;;;;8367196;28;20260;-70
2023/09/14 22:42:51;;;;;;;;;;;16.50;99.90;;;;;;8377940;28;19928;-70
2023/09/14 22:46:53;;;;;;;;;;;16.50;99.90;;;;;;8368930;28;19924;-70
2023/09/14 22:51:13;;;;;;;;;;;16.40;99.90;;;;;;8369094;28;19932;-70
2023/09/14 22:55:15;;;;;;;;;;;16.40;99.90;;;;;;8369910;28;19931;-70
2023/09/14 22:59:18;;;;;;;;;;;16.30;99.90;;;;;;8381406;28;19978;-70
2023/09/14 23:03:20;;;;;;;;;;;16.30;99.90;;;;;;8377940;28;19945;-70
2023/09/14 23:07:22;;;;;;;;;;;16.30;99.90;;;;;;8376825;28;19924;-70
2023/09/14 23:11:26;;;;;;;;;;;16.20;99.90;;;;;;8370190;28;19951;-70
2023/09/14 23:15:27;;;;;;;;;;;16.20;99.90;;;;;;8380758;28;19925;-70
2023/09/14 23:19:31;;;;;;;;;;;16.20;99.90;;;;;;8375521;28;20425;-70
2023/09/14 23:23:33;;;;;;;;;;;16.20;99.90;;;;;;8370906;28;19924;-70
2023/09/14 23:27:37;;;;;;;;;;;16.10;99.90;;;;;;8374286;28;19931;-70
2023/09/14 23:31:42;;;;;;;;;;;16.10;99.90;;;;;;8376234;28;19925;-70
2023/09/14 23:35:44;;;;;;;;;;;16.00;99.90;;;;;;8358745;28;20027;-70
2023/09/14 23:39:45;;;;;;;;;;;16.00;99.90;;;;;;8376650;28;20391;-71
2023/09/14 23:43:48;;;;;;;;;;;16.00;99.90;;;;;;8380692;28;19925;-70
2023/09/14 23:47:49;;;;;;;;;;;16.00;99.90;;;;;;8370058;28;20299;-70
2023/09/14 23:51:52;;;;;;;;;;;15.90;99.90;;;;;;8364089;28;19936;-70
2023/09/14 23:55:54;;;;;;;;;;;15.90;99.90;;;;;;8389538;28;19933;-70
2023/09/14 23:59:56;;;;;;;;;;;15.90;99.90;;;;;;8375152;28;19928;-70
